x

Buoy F01 - West Penobscot Bay (44033) Wave Buoy

11:04am - Thu 10th Jul 2014 All times are EDT. -4 hours from GMT.

  • Sig Wave height 2.0ft
  • Peak Period 8s
  • Wind
    7mph
  • Sea Temp 55°f
  • Air Temp 59°f
  • Sea Pressure 1015.9mb
  • Buoy F01 - West Penobscot Bay
  • Buoy F01 - West Penobscot Bay

More Historic Weather Station data

Upgrade to MSW Pro to gain access to the past 30 days of data for over 8000 Wavebouys and Weather Stations around the globe.

Join Pro

Comparision Forecast

View Surf forecast
   
Thu 07/10 11:04am 2ft 8s 7
mph
1015.9mb 55f 59f
10:04am 2.5ft 8s 4
mph
1015.5mb 53f 59f
9:04am 2.5ft 8s 7
mph
1015.3mb 53f 59f
8:04am 2.5ft 8s 4 7 mph 1014.6mb 53f 57f
7:04am 2.5ft 8s 9
mph
1014.3mb 53f 56f
6:04am 2.5ft 8s 7 9 mph 1013.6mb 54f 56f
5:04am 1.6ft 8s 9 11 mph 1012.7mb 54f 58f
4:04am 2ft 8s 9
mph
1012.3mb 54f 58f
3:04am 2ft 8s 7 9 mph 1011.8mb 54f 58f
2:04am 2ft 6s 7 9 mph 1011.9mb 54f 56f
1:04am 2.5ft 8s 9 11 mph 1011.3mb 55f 57f
12:04am 2.5ft 8s 7 9 mph 1011mb 54f 58f
Wed 07/09 11:04pm 2.5ft 6s 7 9 mph 1010.9mb 54f 57f
10:04pm 3ft 6s 7
mph
1010.9mb 55f 58f
9:04pm 3ft 8s 9
mph
1010.4mb 55f 59f
8:04pm 3ft 8s 7 9 mph 1009.9mb 54f 58f
7:04pm 3.5ft 8s 7
mph
1009.7mb 53f 61f
6:04pm 3ft 6s 11
mph
1009.7mb 53f 60f
5:04pm 3.5ft 8s 9 11 mph 1009.7mb 54f 60f
4:04pm 3.5ft 8s 13 16 mph 1009.6mb 54f 61f
3:04pm 3.5ft 8s 11 13 mph 1009.5mb 55f 62f
2:04pm 3.5ft 8s 11 16 mph 1008.8mb 55f 60f
1:04pm 3.5ft 8s 11 13 mph 1008.7mb 54f 60f
12:04pm 3.5ft 6s 16 18 mph 1008.3mb 54f 62f
11:04am 3.5ft 6s 18 22 mph 1007.4mb 54f 61f
10:04am 3.5ft 6s 16 18 mph 1007mb 54f 60f
9:04am 3.5ft 6s 18 20 mph 1006.6mb 55f 61f
8:04am 3.5ft 6s 16 18 mph 1005.7mb 54f 60f
7:04am 4ft 6s 13 16 mph 1004.8mb 55f 59f
6:04am 4ft 8s 11 13 mph 1003.9mb 55f 59f
5:04am 4ft 6s 9 11 mph 1003.3mb 55f 59f
4:04am 3.5ft 6s 7 9 mph 1003mb 55f 58f
3:04am 3.5ft 5s 9 11 mph 1003.3mb 55f 59f
2:04am 3.5ft 6s 9
mph
1004.2mb 55f 58f
1:04am 3.5ft 5s 7 9 mph 1004.4mb 56f 58f
12:04am 3ft 5s 11 13 mph 1004.7mb 53f 60f
Tue 07/08 11:04pm 2.5ft 6s 11 13 mph 1004.8mb 54f 61f
10:04pm 2ft 6s 4 7 mph 1004.8mb 54f 58f
9:04pm 1.6ft 6s 11
mph
1004.9mb 55f 61f
8:04pm 1.6ft 6s 9 13 mph 1004.7mb 54f 61f
7:04pm 2.5ft 6s 7
mph
1005.1mb 55f 59f
6:04pm 2.5ft 6s 11 13 mph 1005mb 53f 60f
5:04pm 2ft 6s 11 13 mph 1005.5mb 54f 60f
4:04pm 2ft 5s 9 11 mph 1006mb 55f 60f
3:04pm 2ft 5s 11 13 mph 1006.2mb 54f 60f
2:04pm 2.5ft 5s 11 13 mph 1006.4mb 54f 61f
1:04pm 2.5ft 6s 16 18 mph 1006.9mb 53f 59f
12:04pm 2.5ft 6s 13 16 mph 1006.8mb 54f 60f
11:04am 2.5ft 6s 13
mph
1006.7mb 54f 59f
10:04am 2ft 6s 11 13 mph 1006.7mb 55f 60f
9:04am 2.5ft 6s 11
mph
1006.1mb 54f 60f
8:04am 2.5ft 6s 9 13 mph 1005.1mb 54f 59f
7:04am 2.5ft 6s 7
mph
1004.3mb 54f 57f
6:04am 2.5ft 6s 13 16 mph 1004.8mb 53f 58f
5:04am 2ft 6s 9
mph
1004.1mb 53f 57f
4:04am 2.5ft 6s 9 11 mph 1004.6mb 54f 60f
3:04am 2.5ft 8s 9 11 mph 1004.6mb 54f 59f
2:04am 2.5ft 6s 9
mph
1004.4mb 53f 57f
1:04am 2.5ft 6s 9 11 mph 1004.2mb 54f 58f
12:04am 2.5ft 6s 13 16 mph 1004.7mb 54f 60f
Mon 07/07 11:04pm 2.5ft 6s 11 13 mph 1005.1mb 55f 59f
10:04pm 2.5ft 6s 11 13 mph 1004.9mb 55f 59f
9:04pm 2.5ft 6s 11 13 mph 1004.4mb 55f 59f
8:04pm 2ft 6s 9
mph
1004.4mb 55f 59f
7:04pm 2.5ft 6s 7 9 mph 1004.7mb 55f 59f
6:04pm 2ft 6s 4 7 mph 1004.4mb 55f 60f
5:04pm 2.5ft 6s 9 11 mph 1005mb 56f 61f
4:04pm 2ft 5s 7 9 mph 1005.3mb 56f 60f
3:04pm 2.5ft 6s 9 11 mph 1005.7mb 55f 59f
2:04pm 1.6ft 5s 9 11 mph 1006.5mb 55f 59f
1:04pm 2ft 6s 11 13 mph 1007mb 54f 58f
12:04pm 2ft 6s 13 16 mph 1007.2mb 55f 59f
11:04am 2ft 6s 13 16 mph 1007.3mb 54f 59f
10:04am 2.5ft 6s 11 13 mph 1007.5mb 56f 59f
9:04am 2.5ft 6s 13 16 mph 1007.8mb 56f 59f
8:04am 2.5ft 6s 13 16 mph 1007.9mb 55f 59f
7:04am 2ft 6s 9 13 mph 1007.8mb 56f 58f
6:04am 1.6ft 6s 9 11 mph 1007.8mb 55f 58f
5:04am 2ft 6s 11
mph
1008mb 55f 59f
4:04am 1.6ft 5s 11
mph
1007.9mb 56f 60f
3:04am 1.3ft 5s 9
mph
1008.1mb 57f 60f
2:04am 1.6ft 5s 11
mph
1008.4mb 58f 60f
1:04am 1.6ft 5s 9 11 mph 1008mb 58f 60f
12:04am 1.6ft 5s 9 11 mph 1007.9mb 59f 60f
Sun 07/06 11:04pm 1.3ft 5s 7 9 mph 1008.1mb 59f 60f
10:04pm 1.6ft 5s 9
mph
1008.3mb 57f 60f
9:04pm 1.6ft 5s 11 13 mph 1008mb 56f 61f
8:04pm 1.6ft 6s 13 16 mph 1007.5mb 57f 60f
7:04pm 1.6ft 5s 13 16 mph 1007.5mb 57f 62f
6:04pm 1.6ft 8s 11 16 mph 1007.7mb 57f 62f
5:04pm 1.3ft 5s 13
mph
1008mb 57f 63f